createdAt,value
2022-10-14T00:00:14.391Z,92.12
2022-10-14T00:02:41.567Z,92.25
2022-10-14T00:05:09.965Z,92.35
2022-10-14T00:07:39.992Z,92.64
2022-10-14T00:10:07.149Z,92.91
2022-10-14T00:12:34.635Z,93.25
2022-10-14T00:15:01.723Z,93.41
2022-10-14T00:17:28.548Z,93.23
2022-10-14T00:19:55.269Z,93.33
2022-10-14T00:22:22.044Z,92.96
2022-10-14T00:24:48.782Z,93.11
2022-10-14T00:27:15.567Z,93.12
2022-10-14T00:29:42.291Z,93.25
2022-10-14T00:32:09.170Z,93.02
2022-10-14T00:34:35.955Z,93.48
2022-10-14T00:37:04.213Z,93.33
2022-10-14T00:39:32.176Z,93.32
2022-10-14T00:41:58.959Z,93.40
2022-10-14T00:44:25.641Z,93.38
2022-10-14T00:46:52.601Z,93.35
2022-10-14T00:49:27.968Z,93.32
2022-10-14T00:52:02.000Z,93.41
2022-10-14T00:54:42.311Z,93.37
2022-10-14T00:57:10.288Z,93.47
2022-10-14T00:59:38.305Z,93.32
2022-10-14T01:02:05.385Z,93.90
2022-10-14T01:04:33.240Z,93.64
2022-10-14T01:07:27.518Z,93.93
2022-10-14T01:10:09.634Z,94.17
2022-10-14T01:13:11.804Z,94.56
2022-10-14T01:15:48.823Z,95.50
2022-10-14T01:18:20.160Z,95.42
2022-10-14T01:20:57.781Z,95.45
2022-10-14T01:23:39.862Z,94.25
2022-10-14T01:26:44.775Z,93.66
2022-10-14T01:29:53.414Z,94.62
2022-10-14T01:32:26.353Z,94.39
2022-10-14T01:35:01.537Z,95.12
2022-10-14T01:37:30.577Z,95.56
2022-10-14T01:40:02.761Z,96.16
2022-10-14T01:42:34.408Z,95.76
2022-10-14T01:45:19.383Z,95.68
2022-10-14T01:47:50.363Z,95.53
2022-10-14T01:50:20.562Z,95.74
2022-10-14T01:52:53.354Z,96.47
2022-10-14T01:55:25.190Z,96.66
2022-10-14T01:57:56.160Z,96.55
2022-10-14T02:00:24.283Z,96.66
2022-10-14T02:02:51.067Z,96.51
2022-10-14T02:05:28.629Z,96.53
2022-10-14T02:08:14.445Z,96.59
2022-10-14T02:11:11.284Z,96.50
2022-10-14T02:13:47.504Z,96.36
2022-10-14T02:16:34.260Z,96.01
2022-10-14T02:19:28.486Z,95.64
2022-10-14T02:22:01.063Z,95.00
2022-10-14T02:24:39.658Z,94.25
2022-10-14T02:27:11.532Z,94.70
2022-10-14T02:29:42.529Z,94.34
2022-10-14T02:32:14.105Z,94.13
2022-10-14T02:34:42.433Z,94.18
2022-10-14T02:37:12.505Z,94.18
2022-10-14T02:39:44.254Z,94.07
2022-10-14T02:42:11.173Z,93.70
2022-10-14T02:44:37.975Z,93.87
2022-10-14T02:47:04.859Z,93.60
2022-10-14T02:49:31.757Z,93.78
2022-10-14T02:51:58.606Z,93.42
2022-10-14T02:54:25.353Z,92.93
2022-10-14T02:56:52.077Z,92.59
2022-10-14T02:59:18.842Z,93.03
2022-10-14T03:01:46.329Z,92.87
2022-10-14T03:04:13.489Z,93.14
2022-10-14T03:06:40.262Z,92.95
2022-10-14T03:09:08.171Z,92.75
2022-10-14T03:11:38.344Z,92.97
2022-10-14T03:14:08.832Z,92.65
2022-10-14T03:16:37.427Z,92.70
2022-10-14T03:19:04.315Z,92.53
2022-10-14T03:21:46.686Z,92.89
2022-10-14T03:24:18.633Z,93.35
2022-10-14T03:26:48.856Z,92.79
2022-10-14T03:29:19.437Z,92.87
2022-10-14T03:31:55.392Z,92.95
2022-10-14T03:34:42.403Z,93.01
2022-10-14T03:37:14.822Z,92.89
2022-10-14T03:39:48.257Z,93.41
2022-10-14T03:42:16.867Z,93.75
2022-10-14T03:44:47.193Z,94.24
2022-10-14T03:47:23.634Z,94.53
2022-10-14T03:49:50.967Z,94.86
2022-10-14T03:52:28.960Z,95.14
2022-10-14T03:55:02.539Z,95.30
2022-10-14T03:57:29.906Z,95.47
2022-10-14T03:59:59.136Z,95.44
2022-10-14T04:02:41.256Z,95.20
2022-10-14T04:05:20.222Z,95.14
2022-10-14T04:07:48.656Z,95.47
2022-10-14T04:10:15.774Z,96.04
2022-10-14T04:12:48.476Z,96.38
2022-10-14T04:15:23.125Z,96.68
2022-10-14T04:18:06.191Z,97.13
2022-10-14T04:20:33.533Z,97.59
2022-10-14T04:23:00.928Z,97.90
2022-10-14T04:25:28.749Z,98.19
2022-10-14T04:28:05.142Z,98.40
2022-10-14T04:30:44.119Z,98.40
2022-10-14T04:33:16.611Z,98.59
2022-10-14T04:35:43.549Z,98.39
2022-10-14T04:38:19.752Z,99.19
2022-10-14T04:40:53.739Z,99.14
2022-10-14T04:43:20.962Z,99.47
2022-10-14T04:45:48.510Z,99.48
2022-10-14T04:48:22.905Z,99.74
2022-10-14T04:50:54.069Z,100.00
2022-10-14T04:53:33.505Z,100.00
2022-10-14T04:56:26.721Z,100.00
2022-10-14T04:59:00.602Z,100.00
2022-10-14T05:01:46.149Z,100.00
2022-10-14T05:04:13.621Z,100.00
2022-10-14T05:06:42.342Z,100.00
2022-10-14T05:09:12.382Z,100.00
2022-10-14T05:11:39.453Z,100.00
2022-10-14T05:14:06.514Z,100.00
2022-10-14T05:16:35.095Z,100.00
2022-10-14T05:19:03.207Z,100.00
2022-10-14T05:21:32.212Z,100.00
2022-10-14T05:24:09.060Z,100.00
2022-10-14T05:26:38.573Z,100.00
2022-10-14T05:29:10.857Z,100.00
2022-10-14T05:31:39.003Z,100.00
2022-10-14T05:34:35.855Z,100.00
2022-10-14T05:37:04.717Z,100.00
2022-10-14T05:39:38.926Z,100.00
2022-10-14T05:42:06.036Z,100.00
2022-10-14T05:44:34.776Z,100.00
2022-10-14T05:47:02.830Z,100.00
2022-10-14T05:49:29.604Z,100.00
2022-10-14T05:51:58.173Z,100.00
2022-10-14T05:54:24.962Z,100.00
2022-10-14T05:56:54.367Z,100.00
2022-10-14T05:59:22.450Z,100.00
2022-10-14T06:01:49.240Z,100.00
2022-10-14T06:04:21.243Z,100.00
2022-10-14T06:06:48.439Z,100.00
2022-10-14T06:09:16.102Z,100.00
2022-10-14T06:11:42.898Z,100.00
2022-10-14T06:14:10.040Z,100.00
2022-10-14T06:16:37.014Z,100.00
2022-10-14T06:19:06.164Z,100.00
2022-10-14T06:21:33.230Z,100.00
2022-10-14T06:24:00.133Z,100.00
2022-10-14T06:26:27.023Z,100.00
2022-10-14T06:28:53.954Z,100.00
2022-10-14T06:31:21.132Z,100.00
2022-10-14T06:33:47.886Z,99.80
2022-10-14T06:36:14.661Z,99.02
2022-10-14T06:38:41.421Z,99.63
2022-10-14T06:41:08.265Z,99.56
2022-10-14T06:43:35.493Z,100.00
2022-10-14T06:46:03.397Z,100.00
2022-10-14T06:48:30.292Z,100.00
2022-10-14T06:51:01.540Z,98.42
2022-10-14T06:53:29.475Z,97.58
2022-10-14T06:56:05.552Z,100.00
2022-10-14T06:58:33.735Z,100.00
2022-10-14T07:01:05.082Z,100.00
2022-10-14T07:03:36.448Z,100.00
2022-10-14T07:06:05.301Z,95.82
2022-10-14T07:08:32.321Z,98.54
2022-10-14T07:10:59.050Z,92.73
2022-10-14T07:13:26.245Z,80.33
2022-10-14T07:15:53.047Z,59.62
2022-10-14T07:18:20.006Z,57.84
2022-10-14T07:20:47.032Z,52.23
2022-10-14T07:23:14.042Z,51.81
2022-10-14T07:25:41.192Z,48.28
2022-10-14T07:28:08.031Z,46.29
2022-10-14T07:30:34.892Z,42.56
2022-10-14T07:33:02.066Z,42.26
2022-10-14T07:35:29.259Z,43.81
2022-10-14T07:37:57.973Z,42.43
2022-10-14T07:40:25.357Z,41.49
2022-10-14T07:42:52.204Z,41.65
2022-10-14T07:45:21.049Z,41.00
2022-10-14T07:47:50.362Z,41.82
2022-10-14T07:50:17.506Z,39.86
2022-10-14T07:52:44.442Z,39.85
2022-10-14T07:55:11.328Z,39.12
2022-10-14T07:57:38.051Z,36.87
2022-10-14T08:00:06.359Z,37.60
2022-10-14T08:02:41.775Z,37.15
2022-10-14T08:05:32.947Z,36.97
2022-10-14T08:07:55.481Z,36.28
2022-10-14T08:10:22.382Z,36.67
2022-10-14T08:12:49.269Z,37.06
2022-10-14T08:15:16.192Z,37.86
2022-10-14T08:17:43.021Z,36.66
2022-10-14T08:20:09.990Z,36.45
2022-10-14T08:22:36.835Z,35.90
2022-10-14T08:25:03.771Z,35.52
2022-10-14T08:27:30.589Z,35.04
2022-10-14T08:29:57.316Z,35.94
2022-10-14T08:32:24.660Z,35.46
2022-10-14T08:34:51.653Z,35.47
2022-10-14T08:37:18.634Z,33.72
2022-10-14T08:39:45.385Z,33.07
2022-10-14T08:42:24.874Z,31.83
2022-10-14T08:45:03.287Z,32.17
2022-10-14T08:47:40.271Z,31.57
2022-10-14T08:50:14.783Z,30.70
2022-10-14T08:52:50.067Z,30.98
2022-10-14T08:55:46.665Z,30.05
2022-10-14T08:58:16.800Z,29.85
2022-10-14T09:04:35.904Z,28.00
2022-10-14T09:07:03.334Z,26.43
2022-10-14T09:09:53.300Z,26.63
2022-10-14T09:12:29.644Z,26.91
2022-10-14T09:15:04.374Z,26.62
2022-10-14T09:17:45.111Z,25.92
2022-10-14T09:20:22.485Z,27.04
2022-10-14T09:23:04.395Z,26.61
2022-10-14T09:25:37.124Z,26.68
2022-10-14T09:28:04.181Z,25.68
2022-10-14T09:30:36.549Z,25.72
2022-10-14T09:33:05.243Z,25.02
2022-10-14T09:35:38.766Z,25.73
2022-10-14T09:38:06.055Z,25.39
2022-10-14T09:40:39.513Z,24.51
2022-10-14T09:43:09.410Z,25.01
2022-10-14T09:45:48.317Z,24.88
2022-10-14T09:48:19.024Z,24.80
2022-10-14T09:50:55.714Z,25.84
2022-10-14T09:53:27.638Z,25.88
2022-10-14T09:55:55.830Z,26.36
2022-10-14T09:58:30.927Z,25.90
2022-10-14T10:01:00.060Z,26.64
2022-10-14T10:03:35.733Z,27.28
2022-10-14T10:06:07.477Z,28.57
2022-10-14T10:08:37.904Z,28.42
2022-10-14T10:11:11.351Z,30.35
2022-10-14T10:13:44.908Z,31.76
2022-10-14T10:16:20.052Z,32.67
2022-10-14T10:18:47.019Z,33.17
2022-10-14T10:21:28.023Z,33.65
2022-10-14T10:23:58.991Z,35.48
2022-10-14T10:26:33.262Z,35.87
2022-10-14T10:29:05.072Z,36.50
2022-10-14T10:31:36.495Z,37.83
2022-10-14T10:34:13.304Z,38.52
2022-10-14T10:36:48.273Z,38.71
2022-10-14T10:39:27.023Z,38.86
2022-10-14T10:42:04.181Z,39.03
2022-10-14T10:44:58.989Z,38.63
2022-10-14T10:47:50.888Z,37.29
2022-10-14T10:50:30.055Z,36.30
2022-10-14T10:53:13.856Z,36.33
2022-10-14T10:58:19.063Z,35.82
2022-10-14T11:00:54.518Z,35.79
2022-10-14T11:03:55.141Z,35.82
2022-10-14T11:06:49.975Z,35.55
2022-10-14T11:09:55.555Z,35.48
2022-10-14T11:12:36.609Z,36.25
2022-10-14T11:15:20.498Z,35.68
2022-10-14T11:18:01.273Z,35.47
2022-10-14T11:20:44.084Z,36.17
2022-10-14T11:23:42.692Z,36.11
2022-10-14T11:26:52.360Z,36.50
2022-10-14T11:29:47.570Z,38.66
2022-10-14T11:32:14.396Z,39.09
2022-10-14T11:35:09.513Z,37.85
2022-10-14T11:37:54.707Z,36.23
2022-10-14T11:40:50.777Z,35.40
2022-10-14T11:43:36.634Z,35.02
2022-10-14T11:46:12.594Z,35.42
2022-10-14T11:48:47.528Z,35.77
2022-10-14T11:51:35.900Z,36.48
2022-10-14T11:54:09.162Z,37.44
2022-10-14T11:56:41.794Z,39.02
2022-10-14T11:59:19.880Z,40.15
2022-10-14T12:01:50.172Z,41.54
2022-10-14T12:04:27.907Z,42.54
2022-10-14T12:07:13.460Z,43.88
2022-10-14T12:09:59.889Z,45.29
2022-10-14T12:12:29.440Z,45.96
2022-10-14T12:15:00.488Z,46.45
2022-10-14T12:17:51.644Z,47.31
2022-10-14T12:20:34.408Z,47.48
2022-10-14T12:23:04.662Z,48.28
2022-10-14T12:25:41.534Z,48.83
2022-10-14T12:28:12.392Z,49.33
2022-10-14T12:30:41.608Z,49.18
2022-10-14T12:33:13.384Z,48.98
2022-10-14T12:36:02.120Z,49.24
2022-10-14T12:38:30.597Z,48.99
2022-10-14T12:41:40.409Z,49.42
2022-10-14T12:44:14.881Z,48.58
2022-10-14T12:46:45.405Z,48.97
2022-10-14T12:49:46.759Z,48.40
2022-10-14T12:52:21.400Z,48.37
2022-10-14T12:54:50.127Z,48.35
2022-10-14T12:57:31.099Z,48.30
2022-10-14T13:00:01.461Z,47.53
2022-10-14T13:02:37.525Z,47.48
2022-10-14T13:05:10.451Z,47.09
2022-10-14T13:07:46.600Z,46.85
2022-10-14T13:10:46.841Z,46.08
2022-10-14T13:13:42.538Z,45.89
2022-10-14T13:16:16.068Z,45.88
2022-10-14T13:18:42.811Z,45.79
2022-10-14T13:21:21.115Z,45.36
2022-10-14T13:23:51.461Z,45.30
2022-10-14T13:26:31.817Z,45.01
2022-10-14T13:29:13.748Z,44.62
2022-10-14T13:31:49.683Z,45.06
2022-10-14T13:34:27.754Z,44.85
2022-10-14T13:37:03.437Z,45.23
2022-10-14T13:39:33.669Z,45.24
2022-10-14T13:42:01.795Z,45.51
2022-10-14T13:44:28.934Z,45.28
2022-10-14T13:46:56.457Z,45.52
2022-10-14T13:49:38.125Z,45.75
2022-10-14T13:52:18.335Z,46.33
2022-10-14T13:54:45.926Z,46.87
2022-10-14T14:02:55.171Z,48.16
2022-10-14T14:05:26.283Z,48.93
2022-10-14T14:10:57.511Z,49.80
2022-10-14T14:13:32.368Z,50.23
2022-10-14T14:15:59.217Z,50.69
2022-10-14T14:18:33.944Z,51.18
2022-10-14T14:21:13.384Z,51.53
2022-10-14T14:24:16.782Z,51.83
2022-10-14T14:26:53.713Z,51.95
2022-10-14T14:29:27.859Z,52.23
2022-10-14T14:32:12.322Z,52.76
2022-10-14T14:34:42.902Z,53.23
2022-10-14T14:40:15.017Z,54.53
2022-10-14T14:42:43.805Z,55.08
2022-10-14T14:45:17.975Z,55.42
2022-10-14T14:47:53.343Z,56.43
2022-10-14T14:50:30.414Z,57.24
2022-10-14T14:53:03.355Z,58.16
2022-10-14T14:55:43.493Z,59.00
2022-10-14T14:58:28.593Z,59.20
2022-10-14T15:00:56.036Z,60.31
2022-10-14T15:03:30.773Z,62.80
2022-10-14T15:06:00.908Z,65.10
2022-10-14T15:08:32.171Z,68.49
2022-10-14T15:11:00.368Z,68.30
2022-10-14T15:13:39.637Z,69.64
2022-10-14T15:16:07.700Z,70.62
2022-10-14T15:18:37.593Z,71.18
2022-10-14T15:21:21.558Z,73.93
2022-10-14T15:23:52.895Z,74.94
2022-10-14T15:26:21.614Z,76.07
2022-10-14T15:29:22.711Z,77.17
2022-10-14T15:32:05.180Z,77.73
2022-10-14T15:34:32.661Z,78.54
2022-10-14T15:36:59.477Z,79.59
2022-10-14T15:39:26.337Z,80.31
2022-10-14T15:41:53.116Z,81.83
2022-10-14T15:44:19.881Z,83.68
2022-10-14T15:47:05.693Z,83.68
2022-10-14T15:49:42.563Z,84.90
2022-10-14T15:52:15.541Z,85.16
2022-10-14T15:54:43.235Z,86.21
2022-10-14T15:57:14.024Z,86.41
2022-10-14T15:59:45.629Z,87.28
2022-10-14T16:02:33.475Z,87.95
2022-10-14T16:05:19.442Z,88.88
2022-10-14T16:07:48.419Z,89.01
2022-10-14T16:10:18.385Z,89.66
2022-10-14T16:12:45.854Z,89.82
2022-10-14T16:15:30.455Z,90.24
2022-10-14T16:17:57.430Z,90.17
2022-10-14T16:20:24.534Z,90.07
2022-10-14T16:22:51.318Z,90.53
2022-10-14T16:25:32.914Z,90.88
2022-10-14T16:28:00.598Z,91.06
2022-10-14T16:30:28.157Z,90.89
2022-10-14T16:32:55.519Z,91.54
2022-10-14T16:35:22.435Z,91.35
2022-10-14T16:37:49.183Z,91.83
2022-10-14T16:40:16.216Z,92.00
2022-10-14T16:42:42.936Z,92.47
2022-10-14T16:45:10.307Z,92.52
2022-10-14T16:47:38.144Z,92.82
2022-10-14T16:50:06.715Z,92.47
2022-10-14T16:52:54.657Z,92.32
2022-10-14T16:55:22.639Z,93.16
2022-10-14T16:57:49.685Z,92.81
2022-10-14T17:02:45.488Z,93.21
2022-10-14T17:05:13.153Z,93.22
2022-10-14T17:07:39.941Z,93.50
2022-10-14T17:10:07.141Z,93.14
2022-10-14T17:12:33.971Z,93.39
2022-10-14T17:15:00.722Z,93.76
2022-10-14T17:17:27.476Z,93.61
2022-10-14T17:19:54.412Z,93.79
2022-10-14T17:22:21.591Z,94.01
2022-10-14T17:24:49.837Z,94.07
2022-10-14T17:27:19.499Z,94.27
2022-10-14T17:29:46.885Z,94.05
2022-10-14T17:32:13.645Z,94.69
2022-10-14T17:34:40.403Z,94.20
2022-10-14T17:39:35.029Z,94.83
2022-10-14T17:42:01.897Z,94.42
2022-10-14T17:44:28.964Z,94.70
2022-10-14T17:46:56.930Z,94.51
2022-10-14T17:49:23.747Z,94.94
2022-10-14T17:51:50.453Z,94.46
2022-10-14T17:54:17.241Z,93.99
2022-10-14T17:56:44.034Z,94.35
2022-10-14T17:59:12.183Z,93.99
2022-10-14T18:04:25.644Z,94.84
2022-10-14T18:06:54.158Z,95.45
2022-10-14T18:09:21.319Z,95.38
2022-10-14T18:14:38.682Z,94.73
2022-10-14T18:17:06.090Z,94.53
2022-10-14T18:19:33.526Z,94.32
2022-10-14T18:22:00.682Z,94.41
2022-10-14T18:24:27.601Z,94.21
2022-10-14T18:26:54.419Z,94.81
2022-10-14T18:29:21.584Z,94.84
2022-10-14T18:31:49.881Z,94.71
2022-10-14T18:34:17.101Z,95.10
2022-10-14T18:36:43.812Z,95.89
2022-10-14T18:39:12.249Z,95.44
2022-10-14T18:41:39.374Z,95.70
2022-10-14T18:44:07.136Z,96.05
2022-10-14T18:46:36.586Z,95.49
2022-10-14T18:49:05.862Z,95.79
2022-10-14T18:51:35.798Z,95.27
2022-10-14T18:54:05.394Z,95.49
2022-10-14T18:56:38.755Z,95.80
2022-10-14T18:59:18.341Z,95.47
2022-10-14T19:01:46.212Z,95.58
2022-10-14T19:04:14.954Z,95.97
2022-10-14T19:06:44.980Z,96.15
2022-10-14T19:09:12.746Z,95.86
2022-10-14T19:11:39.583Z,95.49
2022-10-14T19:14:06.479Z,95.23
2022-10-14T19:16:39.032Z,95.95
2022-10-14T19:19:16.661Z,95.47
2022-10-14T19:21:45.618Z,96.11
2022-10-14T19:24:13.992Z,95.72
2022-10-14T19:26:43.164Z,95.86
2022-10-14T19:29:12.620Z,95.30
2022-10-14T19:31:39.997Z,95.10
2022-10-14T19:34:08.499Z,95.52
2022-10-14T19:36:37.720Z,95.85
2022-10-14T19:39:06.730Z,96.62
2022-10-14T19:41:38.413Z,96.36
2022-10-14T19:44:05.400Z,96.21
2022-10-14T19:46:32.178Z,96.02
2022-10-14T19:49:02.387Z,95.89
2022-10-14T19:51:29.719Z,94.94
2022-10-14T19:53:57.337Z,95.15
2022-10-14T19:56:25.504Z,94.87
2022-10-14T19:58:54.741Z,94.49
2022-10-14T20:01:24.010Z,94.22
2022-10-14T20:03:51.766Z,94.60
2022-10-14T20:06:19.250Z,94.62
2022-10-14T20:08:46.195Z,95.32
2022-10-14T20:11:16.471Z,95.20
2022-10-14T20:13:46.252Z,94.96
2022-10-14T20:16:13.703Z,94.07
2022-10-14T20:18:41.119Z,93.93
2022-10-14T20:21:10.253Z,94.20
2022-10-14T20:23:40.973Z,94.02
2022-10-14T20:26:11.530Z,94.51
2022-10-14T20:28:39.408Z,94.43
2022-10-14T20:31:08.378Z,94.33
2022-10-14T20:33:35.500Z,94.27
2022-10-14T20:36:14.084Z,94.15
2022-10-14T20:38:41.596Z,94.38
2022-10-14T20:41:13.627Z,94.34
2022-10-14T20:43:41.664Z,93.04
2022-10-14T20:46:08.530Z,93.50
2022-10-14T20:48:37.396Z,93.61
2022-10-14T20:51:08.995Z,93.78
2022-10-14T20:53:35.864Z,93.84
2022-10-14T20:56:05.469Z,94.21
2022-10-14T20:58:33.924Z,94.85
2022-10-14T21:01:09.108Z,94.38
2022-10-14T21:03:36.275Z,94.41
2022-10-14T21:06:08.381Z,94.68
2022-10-14T21:08:36.272Z,94.87
2022-10-14T21:11:11.939Z,95.27
2022-10-14T21:13:44.714Z,95.75
2022-10-14T21:16:32.580Z,96.06
2022-10-14T21:19:05.671Z,95.68
2022-10-14T21:21:38.637Z,96.61
2022-10-14T21:24:06.216Z,96.72
2022-10-14T21:26:33.075Z,96.21
2022-10-14T21:29:02.425Z,95.92
2022-10-14T21:31:30.195Z,95.23
2022-10-14T21:34:02.744Z,94.79
2022-10-14T21:36:33.259Z,94.98
2022-10-14T21:39:03.991Z,95.22
2022-10-14T21:41:31.304Z,95.03
2022-10-14T21:43:59.327Z,94.83
2022-10-14T21:46:26.972Z,95.14
2022-10-14T21:48:57.150Z,95.48
2022-10-14T21:51:26.760Z,95.47
2022-10-14T21:53:53.643Z,95.43
2022-10-14T21:56:21.793Z,95.67
2022-10-14T21:58:48.754Z,95.70
2022-10-14T22:01:24.343Z,95.63
2022-10-14T22:04:05.408Z,95.95
2022-10-14T22:06:35.368Z,95.95
2022-10-14T22:09:05.449Z,95.91
2022-10-14T22:11:35.648Z,95.39
2022-10-14T22:14:04.653Z,95.39
2022-10-14T22:16:31.858Z,94.88
2022-10-14T22:19:01.040Z,94.95
2022-10-14T22:21:30.078Z,95.40
2022-10-14T22:23:58.406Z,95.57
2022-10-14T22:26:26.950Z,96.18
2022-10-14T22:29:01.093Z,95.91
2022-10-14T22:31:29.408Z,95.13
2022-10-14T22:33:56.181Z,95.89
2022-10-14T22:36:25.465Z,95.95
2022-10-14T22:38:53.547Z,95.09
2022-10-14T22:41:21.953Z,94.56
2022-10-14T22:43:51.170Z,94.54
2022-10-14T22:46:20.787Z,95.38
2022-10-14T22:48:49.181Z,95.93
2022-10-14T22:51:19.000Z,96.15
2022-10-14T22:53:46.723Z,96.34
2022-10-14T22:56:17.096Z,96.87
2022-10-14T22:58:43.921Z,98.28
2022-10-14T23:01:13.819Z,98.82
2022-10-14T23:03:41.194Z,99.53
2022-10-14T23:06:10.276Z,100.00
2022-10-14T23:08:38.091Z,100.00
2022-10-14T23:11:05.358Z,100.00
2022-10-14T23:13:33.023Z,100.00
2022-10-14T23:16:02.113Z,100.00
2022-10-14T23:18:31.522Z,100.00
2022-10-14T23:20:58.412Z,100.00
2022-10-14T23:23:25.269Z,100.00
2022-10-14T23:25:52.179Z,99.72
2022-10-14T23:28:18.983Z,99.88
2022-10-14T23:30:45.863Z,99.53
2022-10-14T23:33:12.703Z,99.01
2022-10-14T23:35:39.518Z,99.12
2022-10-14T23:38:06.330Z,98.21
2022-10-14T23:40:33.536Z,97.34
2022-10-14T23:43:00.233Z,96.33
2022-10-14T23:45:27.007Z,96.30
2022-10-14T23:47:53.676Z,96.29
2022-10-14T23:50:22.566Z,96.63
2022-10-14T23:52:49.637Z,96.48
2022-10-14T23:55:16.480Z,96.00
2022-10-14T23:57:43.303Z,95.74
